sensor_id;sensor_type;location;lat;lon;timestamp;pressure;altitude;pressure_sealevel;temperature;humidity
56038;BME280;41907;47.848;9.000;2023-07-08T00:01:41;95866.03;;;20.26;52.91
56038;BME280;41907;47.848;9.000;2023-07-08T00:04:06;95862.91;;;20.24;52.62
56038;BME280;41907;47.848;9.000;2023-07-08T00:06:32;95862.84;;;20.21;52.48
56038;BME280;41907;47.848;9.000;2023-07-08T00:08:58;95855.50;;;20.21;52.74
56038;BME280;41907;47.848;9.000;2023-07-08T00:11:23;95856.66;;;20.20;53.14
56038;BME280;41907;47.848;9.000;2023-07-08T00:13:50;95865.03;;;20.12;53.44
56038;BME280;41907;47.848;9.000;2023-07-08T00:16:16;95862.75;;;20.14;53.10
56038;BME280;41907;47.848;9.000;2023-07-08T00:18:42;95868.53;;;20.12;52.36
56038;BME280;41907;47.848;9.000;2023-07-08T00:21:14;95873.28;;;20.19;52.89
56038;BME280;41907;47.848;9.000;2023-07-08T00:23:40;95871.41;;;20.23;51.97
56038;BME280;41907;47.848;9.000;2023-07-08T00:26:24;95871.09;;;20.28;51.90
56038;BME280;41907;47.848;9.000;2023-07-08T00:28:51;95866.22;;;20.37;52.84
56038;BME280;41907;47.848;9.000;2023-07-08T00:31:16;95874.94;;;20.27;52.27
56038;BME280;41907;47.848;9.000;2023-07-08T00:33:42;95873.81;;;20.28;51.64
56038;BME280;41907;47.848;9.000;2023-07-08T00:36:14;95865.00;;;20.34;52.07
56038;BME280;41907;47.848;9.000;2023-07-08T00:38:40;95864.66;;;20.36;52.70
56038;BME280;41907;47.848;9.000;2023-07-08T00:41:11;95867.28;;;20.32;51.69
56038;BME280;41907;47.848;9.000;2023-07-08T00:43:44;95867.97;;;20.26;51.87
56038;BME280;41907;47.848;9.000;2023-07-08T00:48:37;95885.53;;;20.35;52.07
56038;BME280;41907;47.848;9.000;2023-07-08T00:51:02;95917.72;;;20.40;53.78
56038;BME280;41907;47.848;9.000;2023-07-08T00:53:28;95990.88;;;20.40;54.79
56038;BME280;41907;47.848;9.000;2023-07-08T00:56:08;96024.09;;;20.15;56.25
56038;BME280;41907;47.848;9.000;2023-07-08T00:58:36;95992.97;;;20.05;55.40
56038;BME280;41907;47.848;9.000;2023-07-08T01:01:03;95975.03;;;20.20;53.81
56038;BME280;41907;47.848;9.000;2023-07-08T01:03:29;95970.47;;;20.24;54.23
56038;BME280;41907;47.848;9.000;2023-07-08T01:05:56;95979.44;;;20.28;52.92
56038;BME280;41907;47.848;9.000;2023-07-08T01:08:24;95968.78;;;20.38;53.13
56038;BME280;41907;47.848;9.000;2023-07-08T01:10:53;95968.47;;;20.43;53.15
56038;BME280;41907;47.848;9.000;2023-07-08T01:13:22;95966.75;;;20.58;52.83
56038;BME280;41907;47.848;9.000;2023-07-08T01:15:47;95958.34;;;20.67;51.99
56038;BME280;41907;47.848;9.000;2023-07-08T01:18:15;95954.91;;;20.70;52.64
56038;BME280;41907;47.848;9.000;2023-07-08T01:20:46;95967.53;;;20.59;53.17
56038;BME280;41907;47.848;9.000;2023-07-08T01:23:12;95980.56;;;20.50;55.82
56038;BME280;41907;47.848;9.000;2023-07-08T01:25:38;95982.44;;;20.46;56.25
56038;BME280;41907;47.848;9.000;2023-07-08T01:28:03;95975.25;;;20.57;63.77
56038;BME280;41907;47.848;9.000;2023-07-08T01:30:29;95968.16;;;20.49;64.47
56038;BME280;41907;47.848;9.000;2023-07-08T01:32:56;95965.72;;;20.17;62.37
56038;BME280;41907;47.848;9.000;2023-07-08T01:35:22;95974.28;;;20.19;64.15
56038;BME280;41907;47.848;9.000;2023-07-08T01:37:58;95980.69;;;20.11;67.26
56038;BME280;41907;47.848;9.000;2023-07-08T01:40:31;95973.06;;;20.17;61.23
56038;BME280;41907;47.848;9.000;2023-07-08T01:42:57;95952.34;;;20.80;63.57
56038;BME280;41907;47.848;9.000;2023-07-08T01:45:23;95896.78;;;20.67;54.02
56038;BME280;41907;47.848;9.000;2023-07-08T01:47:53;95866.50;;;20.92;64.70
56038;BME280;41907;47.848;9.000;2023-07-08T01:50:20;95862.31;;;20.34;66.36
56038;BME280;41907;47.848;9.000;2023-07-08T01:52:46;95848.75;;;20.08;74.55
56038;BME280;41907;47.848;9.000;2023-07-08T01:55:12;95860.72;;;19.81;72.68
56038;BME280;41907;47.848;9.000;2023-07-08T01:57:37;95904.88;;;19.62;73.46
56038;BME280;41907;47.848;9.000;2023-07-08T02:00:02;95899.22;;;19.48;82.46
56038;BME280;41907;47.848;9.000;2023-07-08T02:02:28;95897.56;;;19.43;85.30
56038;BME280;41907;47.848;9.000;2023-07-08T02:04:53;95894.78;;;19.40;87.75
56038;BME280;41907;47.848;9.000;2023-07-08T02:07:18;95891.75;;;19.41;89.87
56038;BME280;41907;47.848;9.000;2023-07-08T02:09:43;95882.19;;;19.24;85.61
56038;BME280;41907;47.848;9.000;2023-07-08T02:12:09;95889.53;;;19.05;89.37
56038;BME280;41907;47.848;9.000;2023-07-08T02:14:34;95887.22;;;19.07;89.64
56038;BME280;41907;47.848;9.000;2023-07-08T02:16:59;95897.75;;;19.12;91.66
56038;BME280;41907;47.848;9.000;2023-07-08T02:19:24;95912.91;;;19.16;92.12
56038;BME280;41907;47.848;9.000;2023-07-08T02:21:50;95906.53;;;19.05;91.19
56038;BME280;41907;47.848;9.000;2023-07-08T02:24:17;95898.06;;;18.87;89.66
56038;BME280;41907;47.848;9.000;2023-07-08T02:26:42;95904.63;;;19.06;90.78
56038;BME280;41907;47.848;9.000;2023-07-08T02:29:07;95908.22;;;19.13;90.25
56038;BME280;41907;47.848;9.000;2023-07-08T02:31:32;95900.63;;;19.00;91.62
56038;BME280;41907;47.848;9.000;2023-07-08T02:33:58;95898.66;;;18.97;90.94
56038;BME280;41907;47.848;9.000;2023-07-08T02:36:23;95896.78;;;19.01;93.80
56038;BME280;41907;47.848;9.000;2023-07-08T02:38:48;95884.41;;;19.00;92.05
56038;BME280;41907;47.848;9.000;2023-07-08T02:41:13;95883.97;;;18.78;91.22
56038;BME280;41907;47.848;9.000;2023-07-08T02:43:39;95882.84;;;18.79;92.08
56038;BME280;41907;47.848;9.000;2023-07-08T02:46:04;95879.88;;;18.65;91.50
56038;BME280;41907;47.848;9.000;2023-07-08T02:48:29;95878.47;;;18.55;91.64
56038;BME280;41907;47.848;9.000;2023-07-08T02:51:01;95870.72;;;18.54;93.27
56038;BME280;41907;47.848;9.000;2023-07-08T02:53:27;95878.34;;;18.48;95.26
56038;BME280;41907;47.848;9.000;2023-07-08T02:55:52;95873.00;;;18.52;95.37
56038;BME280;41907;47.848;9.000;2023-07-08T02:58:18;95867.09;;;18.46;97.71
56038;BME280;41907;47.848;9.000;2023-07-08T03:00:43;95879.13;;;18.49;95.56
56038;BME280;41907;47.848;9.000;2023-07-08T03:03:08;95872.56;;;18.50;94.55
56038;BME280;41907;47.848;9.000;2023-07-08T03:05:33;95886.66;;;18.59;96.08
56038;BME280;41907;47.848;9.000;2023-07-08T03:07:59;95882.63;;;18.69;97.32
56038;BME280;41907;47.848;9.000;2023-07-08T03:10:24;95882.72;;;18.72;98.00
56038;BME280;41907;47.848;9.000;2023-07-08T03:12:49;95882.44;;;18.77;95.71
56038;BME280;41907;47.848;9.000;2023-07-08T03:15:15;95869.91;;;18.69;92.59
56038;BME280;41907;47.848;9.000;2023-07-08T03:17:40;95868.50;;;18.40;94.20
56038;BME280;41907;47.848;9.000;2023-07-08T03:20:07;95855.53;;;18.46;95.78
56038;BME280;41907;47.848;9.000;2023-07-08T03:22:32;95857.66;;;18.56;93.25
56038;BME280;41907;47.848;9.000;2023-07-08T03:24:57;95864.91;;;18.52;95.05
56038;BME280;41907;47.848;9.000;2023-07-08T03:27:22;95871.03;;;18.49;94.57
56038;BME280;41907;47.848;9.000;2023-07-08T03:29:48;95879.13;;;18.49;96.66
56038;BME280;41907;47.848;9.000;2023-07-08T03:32:13;95887.38;;;18.56;96.21
56038;BME280;41907;47.848;9.000;2023-07-08T03:34:38;95894.03;;;18.58;97.14
56038;BME280;41907;47.848;9.000;2023-07-08T03:37:04;95901.84;;;18.64;98.83
56038;BME280;41907;47.848;9.000;2023-07-08T03:39:29;95905.31;;;18.64;99.10
56038;BME280;41907;47.848;9.000;2023-07-08T03:41:56;95909.84;;;18.60;98.43
56038;BME280;41907;47.848;9.000;2023-07-08T03:44:22;95900.97;;;18.59;99.19
56038;BME280;41907;47.848;9.000;2023-07-08T03:46:48;95907.59;;;18.62;99.67
56038;BME280;41907;47.848;9.000;2023-07-08T03:49:17;95899.78;;;18.57;99.57
56038;BME280;41907;47.848;9.000;2023-07-08T03:51:46;95898.44;;;18.67;100.00
56038;BME280;41907;47.848;9.000;2023-07-08T03:54:12;95903.50;;;18.52;99.30
56038;BME280;41907;47.848;9.000;2023-07-08T03:56:38;95914.72;;;18.54;97.16
56038;BME280;41907;47.848;9.000;2023-07-08T03:59:04;95917.84;;;18.37;98.04
56038;BME280;41907;47.848;9.000;2023-07-08T04:01:29;95920.19;;;18.39;99.65
56038;BME280;41907;47.848;9.000;2023-07-08T04:03:55;95929.44;;;18.38;100.00
56038;BME280;41907;47.848;9.000;2023-07-08T04:06:21;95938.94;;;18.16;100.00
56038;BME280;41907;47.848;9.000;2023-07-08T04:08:46;95948.53;;;17.98;100.00
56038;BME280;41907;47.848;9.000;2023-07-08T04:11:16;95960.13;;;17.98;100.00
56038;BME280;41907;47.848;9.000;2023-07-08T04:13:41;95961.06;;;18.06;100.00
56038;BME280;41907;47.848;9.000;2023-07-08T04:16:07;95958.34;;;18.21;100.00
56038;BME280;41907;47.848;9.000;2023-07-08T04:18:33;95962.38;;;18.28;100.00
56038;BME280;41907;47.848;9.000;2023-07-08T04:20:58;95949.56;;;18.25;99.64
56038;BME280;41907;47.848;9.000;2023-07-08T04:23:24;95967.47;;;18.33;98.30
56038;BME280;41907;47.848;9.000;2023-07-08T04:25:50;95953.09;;;18.44;95.05
56038;BME280;41907;47.848;9.000;2023-07-08T04:28:17;95964.13;;;18.55;92.59
56038;BME280;41907;47.848;9.000;2023-07-08T04:30:42;95959.50;;;18.71;92.63
56038;BME280;41907;47.848;9.000;2023-07-08T04:33:08;95960.06;;;18.80;91.28
56038;BME280;41907;47.848;9.000;2023-07-08T04:35:34;95964.22;;;18.93;90.27
56038;BME280;41907;47.848;9.000;2023-07-08T04:38:00;95970.19;;;19.03;90.97
56038;BME280;41907;47.848;9.000;2023-07-08T04:40:26;95973.47;;;19.12;90.61
56038;BME280;41907;47.848;9.000;2023-07-08T04:42:51;95978.22;;;19.18;90.80
56038;BME280;41907;47.848;9.000;2023-07-08T04:45:17;95979.44;;;19.21;91.85
56038;BME280;41907;47.848;9.000;2023-07-08T04:47:42;95990.75;;;19.26;91.56
56038;BME280;41907;47.848;9.000;2023-07-08T04:50:08;95988.41;;;19.25;92.46
56038;BME280;41907;47.848;9.000;2023-07-08T04:52:35;95980.56;;;19.20;89.41
56038;BME280;41907;47.848;9.000;2023-07-08T04:55:00;95972.19;;;19.25;86.34
56038;BME280;41907;47.848;9.000;2023-07-08T04:57:25;95978.53;;;19.32;85.22
56038;BME280;41907;47.848;9.000;2023-07-08T04:59:51;95992.59;;;19.42;83.71
56038;BME280;41907;47.848;9.000;2023-07-08T05:02:16;95995.31;;;19.22;91.76
56038;BME280;41907;47.848;9.000;2023-07-08T05:04:41;95989.47;;;19.01;95.90
56038;BME280;41907;47.848;9.000;2023-07-08T05:07:06;95991.22;;;18.74;98.86
56038;BME280;41907;47.848;9.000;2023-07-08T05:09:31;95987.59;;;18.67;98.59
56038;BME280;41907;47.848;9.000;2023-07-08T05:11:57;95977.28;;;18.72;98.93
56038;BME280;41907;47.848;9.000;2023-07-08T05:14:22;95978.72;;;18.85;99.85
56038;BME280;41907;47.848;9.000;2023-07-08T05:16:47;95986.41;;;18.83;99.00
56038;BME280;41907;47.848;9.000;2023-07-08T05:19:13;95992.16;;;18.82;97.95
56038;BME280;41907;47.848;9.000;2023-07-08T05:21:38;95978.53;;;18.59;100.00
56038;BME280;41907;47.848;9.000;2023-07-08T05:24:04;95977.66;;;18.55;100.00
56038;BME280;41907;47.848;9.000;2023-07-08T05:26:29;95979.47;;;18.67;100.00
56038;BME280;41907;47.848;9.000;2023-07-08T05:28:55;95979.53;;;18.70;100.00
56038;BME280;41907;47.848;9.000;2023-07-08T05:31:20;95983.13;;;18.74;100.00
56038;BME280;41907;47.848;9.000;2023-07-08T05:33:45;95990.09;;;18.75;100.00
56038;BME280;41907;47.848;9.000;2023-07-08T05:36:10;96008.56;;;18.73;100.00
56038;BME280;41907;47.848;9.000;2023-07-08T05:38:36;96008.84;;;18.68;100.00
56038;BME280;41907;47.848;9.000;2023-07-08T05:41:01;96005.91;;;18.57;100.00
56038;BME280;41907;47.848;9.000;2023-07-08T05:43:26;96012.94;;;18.46;100.00
56038;BME280;41907;47.848;9.000;2023-07-08T05:45:52;96015.38;;;18.67;100.00
56038;BME280;41907;47.848;9.000;2023-07-08T05:48:17;96017.03;;;18.72;100.00
56038;BME280;41907;47.848;9.000;2023-07-08T05:50:42;96030.19;;;18.73;100.00
56038;BME280;41907;47.848;9.000;2023-07-08T05:53:10;96040.88;;;18.85;100.00
56038;BME280;41907;47.848;9.000;2023-07-08T05:55:35;96041.50;;;18.79;100.00
56038;BME280;41907;47.848;9.000;2023-07-08T05:58:01;96037.88;;;18.90;100.00
56038;BME280;41907;47.848;9.000;2023-07-08T06:00:26;96059.59;;;18.94;100.00
56038;BME280;41907;47.848;9.000;2023-07-08T06:02:52;96055.78;;;18.95;100.00
56038;BME280;41907;47.848;9.000;2023-07-08T06:05:17;96065.94;;;19.02;100.00
56038;BME280;41907;47.848;9.000;2023-07-08T06:07:42;96076.41;;;19.03;100.00
56038;BME280;41907;47.848;9.000;2023-07-08T06:10:07;96084.44;;;19.00;100.00
56038;BME280;41907;47.848;9.000;2023-07-08T06:12:33;96087.28;;;19.07;100.00
56038;BME280;41907;47.848;9.000;2023-07-08T06:14:58;96076.22;;;19.12;100.00
56038;BME280;41907;47.848;9.000;2023-07-08T06:17:23;96083.25;;;19.16;100.00
56038;BME280;41907;47.848;9.000;2023-07-08T06:19:48;96081.13;;;19.25;99.48
56038;BME280;41907;47.848;9.000;2023-07-08T06:22:14;96073.97;;;19.33;98.49
56038;BME280;41907;47.848;9.000;2023-07-08T06:24:39;96080.66;;;19.39;98.08
56038;BME280;41907;47.848;9.000;2023-07-08T06:27:04;96088.06;;;19.42;98.40
56038;BME280;41907;47.848;9.000;2023-07-08T06:29:30;96082.66;;;19.42;99.60
56038;BME280;41907;47.848;9.000;2023-07-08T06:31:55;96064.41;;;19.39;99.74
56038;BME280;41907;47.848;9.000;2023-07-08T06:34:21;96067.31;;;19.11;99.17
56038;BME280;41907;47.848;9.000;2023-07-08T06:36:48;96064.59;;;19.11;99.27
56038;BME280;41907;47.848;9.000;2023-07-08T06:39:14;96071.81;;;19.23;100.00
56038;BME280;41907;47.848;9.000;2023-07-08T06:41:39;96063.94;;;19.33;99.92
56038;BME280;41907;47.848;9.000;2023-07-08T06:44:04;96047.69;;;19.33;97.12
56038;BME280;41907;47.848;9.000;2023-07-08T06:46:30;96051.94;;;19.34;96.24
56038;BME280;41907;47.848;9.000;2023-07-08T06:48:55;96056.13;;;18.93;99.08
56038;BME280;41907;47.848;9.000;2023-07-08T06:51:20;96057.09;;;18.54;100.00
56038;BME280;41907;47.848;9.000;2023-07-08T06:53:45;96070.44;;;18.31;100.00
56038;BME280;41907;47.848;9.000;2023-07-08T06:56:11;96069.59;;;18.27;100.00
56038;BME280;41907;47.848;9.000;2023-07-08T06:58:36;96066.19;;;18.46;100.00
56038;BME280;41907;47.848;9.000;2023-07-08T07:01:02;96061.22;;;18.48;100.00
56038;BME280;41907;47.848;9.000;2023-07-08T07:03:27;96058.69;;;18.71;100.00
56038;BME280;41907;47.848;9.000;2023-07-08T07:05:52;96055.97;;;18.86;100.00
56038;BME280;41907;47.848;9.000;2023-07-08T07:08:17;96051.97;;;19.15;100.00
56038;BME280;41907;47.848;9.000;2023-07-08T07:10:42;96082.28;;;19.24;100.00
56038;BME280;41907;47.848;9.000;2023-07-08T07:13:08;96085.91;;;19.32;100.00
56038;BME280;41907;47.848;9.000;2023-07-08T07:15:33;96076.09;;;19.43;100.00
56038;BME280;41907;47.848;9.000;2023-07-08T07:17:58;96064.88;;;19.60;100.00
56038;BME280;41907;47.848;9.000;2023-07-08T07:20:24;96084.09;;;19.75;100.00
56038;BME280;41907;47.848;9.000;2023-07-08T07:22:49;96086.56;;;19.83;100.00
56038;BME280;41907;47.848;9.000;2023-07-08T07:25:16;96081.66;;;19.89;100.00
56038;BME280;41907;47.848;9.000;2023-07-08T07:27:41;96078.38;;;19.99;97.88
56038;BME280;41907;47.848;9.000;2023-07-08T07:30:07;96090.16;;;20.10;94.25
56038;BME280;41907;47.848;9.000;2023-07-08T07:32:32;96087.44;;;20.52;93.24
56038;BME280;41907;47.848;9.000;2023-07-08T07:34:59;96086.97;;;20.47;95.56
56038;BME280;41907;47.848;9.000;2023-07-08T07:37:24;96088.66;;;20.55;94.53
56038;BME280;41907;47.848;9.000;2023-07-08T07:39:50;96089.22;;;20.67;92.09
56038;BME280;41907;47.848;9.000;2023-07-08T07:42:15;96091.06;;;20.86;91.00
56038;BME280;41907;47.848;9.000;2023-07-08T07:44:41;96101.78;;;21.05;89.77
56038;BME280;41907;47.848;9.000;2023-07-08T07:47:07;96092.75;;;20.94;87.23
56038;BME280;41907;47.848;9.000;2023-07-08T07:49:33;96100.09;;;20.94;86.82
56038;BME280;41907;47.848;9.000;2023-07-08T07:51:59;96097.41;;;20.97;85.78
56038;BME280;41907;47.848;9.000;2023-07-08T07:54:24;96096.53;;;20.90;87.45
56038;BME280;41907;47.848;9.000;2023-07-08T07:56:49;96099.50;;;20.81;86.00
56038;BME280;41907;47.848;9.000;2023-07-08T07:59:15;96106.00;;;20.76;85.85
56038;BME280;41907;47.848;9.000;2023-07-08T08:01:40;96109.03;;;20.71;86.67
56038;BME280;41907;47.848;9.000;2023-07-08T08:04:07;96106.81;;;20.54;87.15
56038;BME280;41907;47.848;9.000;2023-07-08T08:06:32;96112.69;;;20.56;86.79
56038;BME280;41907;47.848;9.000;2023-07-08T08:08:57;96122.47;;;20.64;88.07
56038;BME280;41907;47.848;9.000;2023-07-08T08:11:23;96124.69;;;20.59;89.67
56038;BME280;41907;47.848;9.000;2023-07-08T08:13:50;96128.75;;;20.46;89.90
56038;BME280;41907;47.848;9.000;2023-07-08T08:16:15;96131.47;;;20.46;91.62
56038;BME280;41907;47.848;9.000;2023-07-08T08:18:40;96143.00;;;20.42;92.42
56038;BME280;41907;47.848;9.000;2023-07-08T08:21:06;96149.91;;;20.40;93.56
56038;BME280;41907;47.848;9.000;2023-07-08T08:23:32;96156.88;;;20.37;93.27
56038;BME280;41907;47.848;9.000;2023-07-08T08:25:57;96151.69;;;20.32;93.69
56038;BME280;41907;47.848;9.000;2023-07-08T08:28:22;96145.38;;;20.25;94.76
56038;BME280;41907;47.848;9.000;2023-07-08T08:30:48;96150.47;;;20.30;96.54
56038;BME280;41907;47.848;9.000;2023-07-08T08:33:14;96154.06;;;20.34;95.76
56038;BME280;41907;47.848;9.000;2023-07-08T08:35:39;96153.19;;;20.49;95.22
56038;BME280;41907;47.848;9.000;2023-07-08T08:38:04;96156.66;;;20.50;96.26
56038;BME280;41907;47.848;9.000;2023-07-08T08:40:30;96152.41;;;20.71;95.37
56038;BME280;41907;47.848;9.000;2023-07-08T08:43:02;96154.63;;;20.89;93.99
56038;BME280;41907;47.848;9.000;2023-07-08T08:45:29;96149.91;;;20.86;91.53
56038;BME280;41907;47.848;9.000;2023-07-08T08:47:58;96161.09;;;21.07;92.91
56038;BME280;41907;47.848;9.000;2023-07-08T08:50:32;96156.16;;;21.12;90.36
56038;BME280;41907;47.848;9.000;2023-07-08T08:52:59;96152.88;;;21.23;89.87
56038;BME280;41907;47.848;9.000;2023-07-08T08:55:26;96148.50;;;21.44;90.34
56038;BME280;41907;47.848;9.000;2023-07-08T08:57:59;96149.16;;;21.64;88.31
56038;BME280;41907;47.848;9.000;2023-07-08T09:00:37;96149.09;;;21.90;86.43
56038;BME280;41907;47.848;9.000;2023-07-08T09:03:11;96149.72;;;22.07;84.58
56038;BME280;41907;47.848;9.000;2023-07-08T09:05:39;96150.19;;;22.16;84.00
56038;BME280;41907;47.848;9.000;2023-07-08T09:12:56;96144.53;;;22.72;79.93
56038;BME280;41907;47.848;9.000;2023-07-08T09:15:22;96149.69;;;22.81;77.48
56038;BME280;41907;47.848;9.000;2023-07-08T09:17:47;96137.81;;;22.59;79.52
56038;BME280;41907;47.848;9.000;2023-07-08T09:20:22;96143.41;;;22.77;77.13
56038;BME280;41907;47.848;9.000;2023-07-08T09:22:51;96146.19;;;22.84;76.21
56038;BME280;41907;47.848;9.000;2023-07-08T09:27:46;96145.41;;;22.80;77.58
56038;BME280;41907;47.848;9.000;2023-07-08T09:30:15;96145.53;;;22.97;78.06
56038;BME280;41907;47.848;9.000;2023-07-08T09:32:41;96149.13;;;23.12;76.08
56038;BME280;41907;47.848;9.000;2023-07-08T09:35:07;96146.19;;;23.35;75.24
56038;BME280;41907;47.848;9.000;2023-07-08T09:37:36;96139.75;;;23.57;74.38
56038;BME280;41907;47.848;9.000;2023-07-08T09:42:39;96146.88;;;23.87;73.40
56038;BME280;41907;47.848;9.000;2023-07-08T09:45:13;96145.03;;;24.16;73.63
56038;BME280;41907;47.848;9.000;2023-07-08T09:47:39;96145.53;;;24.42;72.29
56038;BME280;41907;47.848;9.000;2023-07-08T09:52:50;96146.31;;;24.64;71.70
56038;BME280;41907;47.848;9.000;2023-07-08T09:55:15;96155.66;;;24.67;70.71
56038;BME280;41907;47.848;9.000;2023-07-08T09:57:41;96149.47;;;24.80;70.19
56038;BME280;41907;47.848;9.000;2023-07-08T10:00:12;96156.50;;;24.92;70.18
56038;BME280;41907;47.848;9.000;2023-07-08T10:05:14;96149.47;;;25.05;69.46
56038;BME280;41907;47.848;9.000;2023-07-08T10:07:39;96150.63;;;25.29;67.13
56038;BME280;41907;47.848;9.000;2023-07-08T10:10:06;96151.78;;;25.32;65.35
56038;BME280;41907;47.848;9.000;2023-07-08T10:12:33;96154.13;;;25.23;67.00
56038;BME280;41907;47.848;9.000;2023-07-08T10:15:05;96147.91;;;25.11;67.43
56038;BME280;41907;47.848;9.000;2023-07-08T10:17:36;96161.19;;;25.06;67.37
56038;BME280;41907;47.848;9.000;2023-07-08T10:20:07;96150.22;;;25.41;65.02
56038;BME280;41907;47.848;9.000;2023-07-08T10:25:28;96150.44;;;26.04;62.39
56038;BME280;41907;47.848;9.000;2023-07-08T10:36:12;96148.81;;;26.17;61.50
56038;BME280;41907;47.848;9.000;2023-07-08T10:46:45;96150.38;;;26.14;61.55
56038;BME280;41907;47.848;9.000;2023-07-08T10:54:24;96164.38;;;26.23;61.73
56038;BME280;41907;47.848;9.000;2023-07-08T10:59:41;96159.72;;;26.27;62.59
56038;BME280;41907;47.848;9.000;2023-07-08T11:05:01;96161.50;;;26.55;61.85
56038;BME280;41907;47.848;9.000;2023-07-08T11:07:40;96153.50;;;26.82;59.13
56038;BME280;41907;47.848;9.000;2023-07-08T11:10:16;96158.09;;;26.99;58.52
56038;BME280;41907;47.848;9.000;2023-07-08T11:13:25;96154.13;;;27.08;56.65
56038;BME280;41907;47.848;9.000;2023-07-08T11:15:32;96154.63;;;26.95;59.04
56038;BME280;41907;47.848;9.000;2023-07-08T11:21:02;96155.88;;;26.80;58.04
56038;BME280;41907;47.848;9.000;2023-07-08T11:23:33;96156.28;;;26.79;61.37
56038;BME280;41907;47.848;9.000;2023-07-08T11:26:22;96150.75;;;26.89;59.44
56038;BME280;41907;47.848;9.000;2023-07-08T11:28:50;96151.91;;;26.88;57.75
56038;BME280;41907;47.848;9.000;2023-07-08T11:31:16;96155.06;;;26.83;60.68
56038;BME280;41907;47.848;9.000;2023-07-08T11:33:41;96152.28;;;26.90;60.27
56038;BME280;41907;47.848;9.000;2023-07-08T11:36:07;96144.84;;;26.98;61.18
56038;BME280;41907;47.848;9.000;2023-07-08T11:38:33;96143.91;;;27.15;59.20
56038;BME280;41907;47.848;9.000;2023-07-08T11:41:04;96138.28;;;27.29;58.86
56038;BME280;41907;47.848;9.000;2023-07-08T11:43:44;96143.25;;;27.41;56.14
56038;BME280;41907;47.848;9.000;2023-07-08T11:46:11;96149.41;;;27.53;56.89
56038;BME280;41907;47.848;9.000;2023-07-08T11:48:39;96141.25;;;27.46;57.29
56038;BME280;41907;47.848;9.000;2023-07-08T11:51:06;96143.22;;;27.45;58.16
56038;BME280;41907;47.848;9.000;2023-07-08T11:56:03;96137.97;;;27.20;57.78
56038;BME280;41907;47.848;9.000;2023-07-08T11:58:49;96139.09;;;27.26;57.16
56038;BME280;41907;47.848;9.000;2023-07-08T12:03:46;96146.03;;;26.93;58.99
56038;BME280;41907;47.848;9.000;2023-07-08T12:08:56;96142.97;;;27.29;58.64
56038;BME280;41907;47.848;9.000;2023-07-08T12:11:33;96132.47;;;27.24;58.55
56038;BME280;41907;47.848;9.000;2023-07-08T12:13:59;96141.25;;;27.46;59.00
56038;BME280;41907;47.848;9.000;2023-07-08T12:16:26;96126.69;;;27.56;58.13
56038;BME280;41907;47.848;9.000;2023-07-08T12:18:52;96137.78;;;27.79;59.77
56038;BME280;41907;47.848;9.000;2023-07-08T12:21:17;96135.38;;;28.15;57.36
56038;BME280;41907;47.848;9.000;2023-07-08T12:23:44;96132.25;;;28.13;51.70
56038;BME280;41907;47.848;9.000;2023-07-08T12:26:09;96129.50;;;28.13;54.38
56038;BME280;41907;47.848;9.000;2023-07-08T12:28:36;96123.75;;;28.04;54.84
56038;BME280;41907;47.848;9.000;2023-07-08T12:31:01;96123.47;;;28.29;54.00
56038;BME280;41907;47.848;9.000;2023-07-08T12:33:33;96124.53;;;28.38;56.12
56038;BME280;41907;47.848;9.000;2023-07-08T12:36:02;96122.03;;;28.47;54.20
56038;BME280;41907;47.848;9.000;2023-07-08T12:38:32;96120.41;;;28.23;50.72
56038;BME280;41907;47.848;9.000;2023-07-08T12:40:59;96117.06;;;28.39;52.08
56038;BME280;41907;47.848;9.000;2023-07-08T12:43:25;96127.13;;;28.19;51.22
56038;BME280;41907;47.848;9.000;2023-07-08T12:45:50;96119.47;;;28.33;51.66
56038;BME280;41907;47.848;9.000;2023-07-08T12:48:15;96111.03;;;28.78;55.20
56038;BME280;41907;47.848;9.000;2023-07-08T12:50:40;96116.78;;;29.07;52.57
56038;BME280;41907;47.848;9.000;2023-07-08T12:53:06;96117.22;;;29.05;51.85
56038;BME280;41907;47.848;9.000;2023-07-08T12:55:35;96110.56;;;29.06;50.41
56038;BME280;41907;47.848;9.000;2023-07-08T12:58:01;96115.28;;;29.06;50.51
56038;BME280;41907;47.848;9.000;2023-07-08T13:00:28;96106.78;;;28.97;50.24
56038;BME280;41907;47.848;9.000;2023-07-08T13:02:56;96111.78;;;28.78;51.17
56038;BME280;41907;47.848;9.000;2023-07-08T13:05:23;96107.97;;;28.69;51.73
56038;BME280;41907;47.848;9.000;2023-07-08T13:07:48;96108.41;;;28.67;50.93
56038;BME280;41907;47.848;9.000;2023-07-08T13:10:17;96109.84;;;28.75;51.49
56038;BME280;41907;47.848;9.000;2023-07-08T13:12:44;96103.75;;;28.64;50.49
56038;BME280;41907;47.848;9.000;2023-07-08T13:15:15;96115.50;;;28.65;52.04
56038;BME280;41907;47.848;9.000;2023-07-08T13:17:43;96112.75;;;28.65;48.21
56038;BME280;41907;47.848;9.000;2023-07-08T13:20:12;96111.53;;;28.12;47.74
56038;BME280;41907;47.848;9.000;2023-07-08T13:22:38;96102.56;;;27.77;49.81
56038;BME280;41907;47.848;9.000;2023-07-08T13:25:09;96098.47;;;27.59;50.79
56038;BME280;41907;47.848;9.000;2023-07-08T13:27:38;96098.94;;;27.50;53.21
56038;BME280;41907;47.848;9.000;2023-07-08T13:30:23;96095.97;;;27.71;53.43
56038;BME280;41907;47.848;9.000;2023-07-08T13:32:55;96090.38;;;27.82;49.18
56038;BME280;41907;47.848;9.000;2023-07-08T13:35:42;96091.66;;;27.74;47.67
56038;BME280;41907;47.848;9.000;2023-07-08T13:38:12;96090.09;;;27.35;47.90
56038;BME280;41907;47.848;9.000;2023-07-08T13:40:40;96086.38;;;27.53;50.83
56038;BME280;41907;47.848;9.000;2023-07-08T13:43:07;96085.88;;;27.65;53.16
56038;BME280;41907;47.848;9.000;2023-07-08T13:45:32;96085.63;;;27.49;52.80
56038;BME280;41907;47.848;9.000;2023-07-08T13:47:59;96088.75;;;27.54;52.14
56038;BME280;41907;47.848;9.000;2023-07-08T13:50:25;96080.31;;;26.97;51.71
56038;BME280;41907;47.848;9.000;2023-07-08T13:52:55;96078.47;;;27.24;52.66
56038;BME280;41907;47.848;9.000;2023-07-08T13:55:21;96077.19;;;27.36;52.05